Terminal Aerodrome Forecast
Issued by NWS

Home | Current Version | Previous Version | Text Only | Print | Product List | Glossary On
Versions: 1 2 3 4 5 6 7 8 9 10 11 12 13 14 15 16
000
FTUS44 KLZK 011900 AAA
TAFHOT
TAF AMD
KHOT 011955Z 0120/0218 15005KT P6SM VCSH SCT025 BKN050
     FM020000 15005KT P6SM SCT015 BKN040
     FM020800 17003KT 6SM BR OVC015
      TEMPO 0214/0218 4SM BR OVC007=

USA.gov is the U.S. government's official web portal to all federal, state and local government web resources and services.